sensor_id;sensor_type;location;lat;lon;timestamp;P1;durP1;ratioP1;P2;durP2;ratioP2
49842;SDS011;55559;48.898;9.184;2023-02-11T00:00:20;58.03;;;29.35;;
49842;SDS011;55559;48.898;9.184;2023-02-11T00:02:48;65.80;;;30.35;;
49842;SDS011;55559;48.898;9.184;2023-02-11T00:05:16;68.70;;;31.33;;
49842;SDS011;55559;48.898;9.184;2023-02-11T00:07:45;64.43;;;31.05;;
49842;SDS011;55559;48.898;9.184;2023-02-11T00:10:13;77.40;;;35.20;;
49842;SDS011;55559;48.898;9.184;2023-02-11T00:12:41;72.22;;;33.88;;
49842;SDS011;55559;48.898;9.184;2023-02-11T00:15:09;63.58;;;32.90;;
49842;SDS011;55559;48.898;9.184;2023-02-11T00:17:36;75.38;;;35.20;;
49842;SDS011;55559;48.898;9.184;2023-02-11T00:20:04;68.75;;;30.98;;
49842;SDS011;55559;48.898;9.184;2023-02-11T00:22:32;74.88;;;32.42;;
49842;SDS011;55559;48.898;9.184;2023-02-11T00:25:01;58.33;;;27.95;;
49842;SDS011;55559;48.898;9.184;2023-02-11T00:27:28;54.92;;;27.20;;
49842;SDS011;55559;48.898;9.184;2023-02-11T00:29:56;63.97;;;28.55;;
49842;SDS011;55559;48.898;9.184;2023-02-11T00:32:25;60.17;;;28.15;;
49842;SDS011;55559;48.898;9.184;2023-02-11T00:34:52;68.47;;;28.55;;
49842;SDS011;55559;48.898;9.184;2023-02-11T00:37:20;58.38;;;27.90;;
49842;SDS011;55559;48.898;9.184;2023-02-11T00:39:48;65.97;;;29.25;;
49842;SDS011;55559;48.898;9.184;2023-02-11T00:42:17;64.15;;;31.27;;
49842;SDS011;55559;48.898;9.184;2023-02-11T00:44:44;57.92;;;30.35;;
49842;SDS011;55559;48.898;9.184;2023-02-11T00:47:15;72.40;;;31.73;;
49842;SDS011;55559;48.898;9.184;2023-02-11T00:49:43;65.78;;;32.10;;
49842;SDS011;55559;48.898;9.184;2023-02-11T00:52:10;68.88;;;31.70;;
49842;SDS011;55559;48.898;9.184;2023-02-11T00:54:39;68.50;;;32.60;;
49842;SDS011;55559;48.898;9.184;2023-02-11T00:57:06;64.28;;;31.80;;
49842;SDS011;55559;48.898;9.184;2023-02-11T00:59:35;64.75;;;31.90;;
49842;SDS011;55559;48.898;9.184;2023-02-11T01:02:04;69.70;;;31.38;;
49842;SDS011;55559;48.898;9.184;2023-02-11T01:04:32;70.00;;;30.73;;
49842;SDS011;55559;48.898;9.184;2023-02-11T01:06:59;63.38;;;31.33;;
49842;SDS011;55559;48.898;9.184;2023-02-11T01:09:27;59.00;;;31.00;;
49842;SDS011;55559;48.898;9.184;2023-02-11T01:11:54;60.13;;;29.73;;
49842;SDS011;55559;48.898;9.184;2023-02-11T01:14:21;59.40;;;29.58;;
49842;SDS011;55559;48.898;9.184;2023-02-11T01:16:51;61.88;;;30.48;;
49842;SDS011;55559;48.898;9.184;2023-02-11T01:19:19;69.85;;;30.80;;
49842;SDS011;55559;48.898;9.184;2023-02-11T01:21:47;62.95;;;31.33;;
49842;SDS011;55559;48.898;9.184;2023-02-11T01:24:14;62.83;;;30.58;;
49842;SDS011;55559;48.898;9.184;2023-02-11T01:26:43;67.00;;;30.90;;
49842;SDS011;55559;48.898;9.184;2023-02-11T01:29:10;66.82;;;32.40;;
49842;SDS011;55559;48.898;9.184;2023-02-11T01:31:37;62.15;;;30.33;;
49842;SDS011;55559;48.898;9.184;2023-02-11T01:34:06;66.05;;;30.17;;
49842;SDS011;55559;48.898;9.184;2023-02-11T01:36:35;64.68;;;30.67;;
49842;SDS011;55559;48.898;9.184;2023-02-11T01:39:03;63.45;;;30.23;;
49842;SDS011;55559;48.898;9.184;2023-02-11T01:41:31;57.35;;;28.63;;
49842;SDS011;55559;48.898;9.184;2023-02-11T01:46:48;62.05;;;29.30;;
49842;SDS011;55559;48.898;9.184;2023-02-11T01:49:20;63.78;;;30.02;;
49842;SDS011;55559;48.898;9.184;2023-02-11T01:51:52;71.63;;;32.30;;
49842;SDS011;55559;48.898;9.184;2023-02-11T01:54:28;52.28;;;26.15;;
49842;SDS011;55559;48.898;9.184;2023-02-11T01:57:16;61.90;;;30.15;;
49842;SDS011;55559;48.898;9.184;2023-02-11T01:59:55;53.22;;;28.83;;
49842;SDS011;55559;48.898;9.184;2023-02-11T02:02:40;66.55;;;31.73;;
49842;SDS011;55559;48.898;9.184;2023-02-11T02:05:18;57.45;;;30.00;;
49842;SDS011;55559;48.898;9.184;2023-02-11T02:07:52;67.30;;;30.25;;
49842;SDS011;55559;48.898;9.184;2023-02-11T02:10:25;59.95;;;30.08;;
49842;SDS011;55559;48.898;9.184;2023-02-11T02:12:53;60.30;;;30.27;;
49842;SDS011;55559;48.898;9.184;2023-02-11T02:15:23;59.30;;;28.73;;
49842;SDS011;55559;48.898;9.184;2023-02-11T02:18:01;67.70;;;31.30;;
49842;SDS011;55559;48.898;9.184;2023-02-11T02:20:47;61.17;;;30.42;;
49842;SDS011;55559;48.898;9.184;2023-02-11T02:23:34;67.85;;;28.98;;
49842;SDS011;55559;48.898;9.184;2023-02-11T02:29:29;66.03;;;29.17;;
49842;SDS011;55559;48.898;9.184;2023-02-11T02:32:23;61.97;;;30.13;;
49842;SDS011;55559;48.898;9.184;2023-02-11T02:37:39;58.15;;;27.60;;
49842;SDS011;55559;48.898;9.184;2023-02-11T02:40:13;58.47;;;28.67;;
49842;SDS011;55559;48.898;9.184;2023-02-11T02:42:44;59.85;;;29.83;;
49842;SDS011;55559;48.898;9.184;2023-02-11T02:45:13;61.78;;;29.73;;
49842;SDS011;55559;48.898;9.184;2023-02-11T02:47:43;63.00;;;30.05;;
49842;SDS011;55559;48.898;9.184;2023-02-11T02:50:10;63.72;;;28.83;;
49842;SDS011;55559;48.898;9.184;2023-02-11T02:52:45;65.35;;;30.17;;
49842;SDS011;55559;48.898;9.184;2023-02-11T02:55:29;58.72;;;29.73;;
49842;SDS011;55559;48.898;9.184;2023-02-11T02:58:12;58.78;;;30.27;;
49842;SDS011;55559;48.898;9.184;2023-02-11T03:01:01;60.78;;;29.33;;
49842;SDS011;55559;48.898;9.184;2023-02-11T03:03:40;58.95;;;29.35;;
49842;SDS011;55559;48.898;9.184;2023-02-11T03:06:14;58.47;;;28.08;;
49842;SDS011;55559;48.898;9.184;2023-02-11T03:08:48;62.25;;;30.38;;
49842;SDS011;55559;48.898;9.184;2023-02-11T03:11:20;56.55;;;28.88;;
49842;SDS011;55559;48.898;9.184;2023-02-11T03:13:50;63.45;;;30.60;;
49842;SDS011;55559;48.898;9.184;2023-02-11T03:16:20;55.63;;;29.38;;
49842;SDS011;55559;48.898;9.184;2023-02-11T03:18:54;61.75;;;30.05;;
49842;SDS011;55559;48.898;9.184;2023-02-11T03:21:27;58.40;;;29.02;;
49842;SDS011;55559;48.898;9.184;2023-02-11T03:23:59;69.85;;;30.83;;
49842;SDS011;55559;48.898;9.184;2023-02-11T03:26:31;57.08;;;26.73;;
49842;SDS011;55559;48.898;9.184;2023-02-11T03:29:05;57.97;;;28.05;;
49842;SDS011;55559;48.898;9.184;2023-02-11T03:31:40;59.20;;;27.73;;
49842;SDS011;55559;48.898;9.184;2023-02-11T03:34:20;61.20;;;27.88;;
49842;SDS011;55559;48.898;9.184;2023-02-11T03:36:54;70.57;;;30.50;;
49842;SDS011;55559;48.898;9.184;2023-02-11T03:39:26;58.00;;;28.40;;
49842;SDS011;55559;48.898;9.184;2023-02-11T03:41:58;55.53;;;28.97;;
49842;SDS011;55559;48.898;9.184;2023-02-11T03:44:30;54.92;;;26.80;;
49842;SDS011;55559;48.898;9.184;2023-02-11T03:47:02;61.45;;;27.83;;
49842;SDS011;55559;48.898;9.184;2023-02-11T03:49:35;62.30;;;29.35;;
49842;SDS011;55559;48.898;9.184;2023-02-11T03:52:06;60.03;;;27.10;;
49842;SDS011;55559;48.898;9.184;2023-02-11T03:54:35;55.92;;;27.67;;
49842;SDS011;55559;48.898;9.184;2023-02-11T03:57:06;52.63;;;27.83;;
49842;SDS011;55559;48.898;9.184;2023-02-11T03:59:48;49.60;;;26.98;;
49842;SDS011;55559;48.898;9.184;2023-02-11T04:02:16;61.05;;;28.17;;
49842;SDS011;55559;48.898;9.184;2023-02-11T04:04:45;51.63;;;27.75;;
49842;SDS011;55559;48.898;9.184;2023-02-11T04:07:13;55.65;;;26.50;;
49842;SDS011;55559;48.898;9.184;2023-02-11T04:09:40;72.00;;;30.38;;
49842;SDS011;55559;48.898;9.184;2023-02-11T04:12:08;54.97;;;26.55;;
49842;SDS011;55559;48.898;9.184;2023-02-11T04:14:35;53.58;;;27.15;;
49842;SDS011;55559;48.898;9.184;2023-02-11T04:17:03;54.13;;;25.83;;
49842;SDS011;55559;48.898;9.184;2023-02-11T04:19:30;50.38;;;27.00;;
49842;SDS011;55559;48.898;9.184;2023-02-11T04:22:00;53.42;;;26.58;;
49842;SDS011;55559;48.898;9.184;2023-02-11T04:24:28;51.30;;;26.50;;
49842;SDS011;55559;48.898;9.184;2023-02-11T04:26:55;54.88;;;27.73;;
49842;SDS011;55559;48.898;9.184;2023-02-11T04:29:23;55.38;;;26.33;;
49842;SDS011;55559;48.898;9.184;2023-02-11T04:31:50;59.33;;;27.75;;
49842;SDS011;55559;48.898;9.184;2023-02-11T04:34:18;53.30;;;26.58;;
49842;SDS011;55559;48.898;9.184;2023-02-11T04:36:45;53.30;;;26.33;;
49842;SDS011;55559;48.898;9.184;2023-02-11T04:39:14;49.25;;;25.30;;
49842;SDS011;55559;48.898;9.184;2023-02-11T04:41:41;57.13;;;27.45;;
49842;SDS011;55559;48.898;9.184;2023-02-11T04:44:09;48.58;;;24.95;;
49842;SDS011;55559;48.898;9.184;2023-02-11T04:46:36;51.20;;;25.63;;
49842;SDS011;55559;48.898;9.184;2023-02-11T04:49:04;46.05;;;24.25;;
49842;SDS011;55559;48.898;9.184;2023-02-11T04:51:31;48.20;;;24.98;;
49842;SDS011;55559;48.898;9.184;2023-02-11T04:53:59;53.80;;;24.25;;
49842;SDS011;55559;48.898;9.184;2023-02-11T04:56:28;54.15;;;25.58;;
49842;SDS011;55559;48.898;9.184;2023-02-11T04:58:55;54.65;;;27.45;;
49842;SDS011;55559;48.898;9.184;2023-02-11T05:01:22;48.45;;;25.25;;
49842;SDS011;55559;48.898;9.184;2023-02-11T05:03:50;47.08;;;24.23;;
49842;SDS011;55559;48.898;9.184;2023-02-11T05:06:18;47.80;;;25.75;;
49842;SDS011;55559;48.898;9.184;2023-02-11T05:08:45;53.05;;;25.88;;
49842;SDS011;55559;48.898;9.184;2023-02-11T05:11:13;50.85;;;27.55;;
49842;SDS011;55559;48.898;9.184;2023-02-11T05:13:44;50.67;;;25.88;;
49842;SDS011;55559;48.898;9.184;2023-02-11T05:16:12;47.88;;;25.23;;
49842;SDS011;55559;48.898;9.184;2023-02-11T05:18:40;53.58;;;25.48;;
49842;SDS011;55559;48.898;9.184;2023-02-11T05:21:09;49.53;;;26.38;;
49842;SDS011;55559;48.898;9.184;2023-02-11T05:23:39;49.80;;;26.58;;
49842;SDS011;55559;48.898;9.184;2023-02-11T05:26:07;56.15;;;27.60;;
49842;SDS011;55559;48.898;9.184;2023-02-11T05:28:35;53.10;;;28.45;;
49842;SDS011;55559;48.898;9.184;2023-02-11T05:31:04;59.00;;;28.90;;
49842;SDS011;55559;48.898;9.184;2023-02-11T05:33:32;54.85;;;27.63;;
49842;SDS011;55559;48.898;9.184;2023-02-11T05:35:59;58.67;;;28.00;;
49842;SDS011;55559;48.898;9.184;2023-02-11T05:38:28;54.28;;;26.67;;
49842;SDS011;55559;48.898;9.184;2023-02-11T05:40:55;50.08;;;24.90;;
49842;SDS011;55559;48.898;9.184;2023-02-11T05:43:23;45.20;;;24.65;;
49842;SDS011;55559;48.898;9.184;2023-02-11T05:45:50;51.88;;;25.25;;
49842;SDS011;55559;48.898;9.184;2023-02-11T05:48:19;50.00;;;24.92;;
49842;SDS011;55559;48.898;9.184;2023-02-11T05:50:47;56.97;;;27.38;;
49842;SDS011;55559;48.898;9.184;2023-02-11T05:53:14;47.72;;;25.50;;
49842;SDS011;55559;48.898;9.184;2023-02-11T05:55:42;43.08;;;24.58;;
49842;SDS011;55559;48.898;9.184;2023-02-11T05:58:09;52.95;;;26.45;;
49842;SDS011;55559;48.898;9.184;2023-02-11T06:00:37;48.17;;;24.40;;
49842;SDS011;55559;48.898;9.184;2023-02-11T06:03:04;50.85;;;24.70;;
49842;SDS011;55559;48.898;9.184;2023-02-11T06:05:33;52.60;;;26.30;;
49842;SDS011;55559;48.898;9.184;2023-02-11T06:08:01;48.40;;;26.13;;
49842;SDS011;55559;48.898;9.184;2023-02-11T06:10:28;45.10;;;24.33;;
49842;SDS011;55559;48.898;9.184;2023-02-11T06:12:56;51.45;;;25.15;;
49842;SDS011;55559;48.898;9.184;2023-02-11T06:15:23;47.20;;;24.85;;
49842;SDS011;55559;48.898;9.184;2023-02-11T06:17:51;55.17;;;25.42;;
49842;SDS011;55559;48.898;9.184;2023-02-11T06:20:18;52.08;;;25.05;;
49842;SDS011;55559;48.898;9.184;2023-02-11T06:22:47;51.38;;;26.58;;
49842;SDS011;55559;48.898;9.184;2023-02-11T06:25:15;47.30;;;24.20;;
49842;SDS011;55559;48.898;9.184;2023-02-11T06:27:42;53.15;;;25.65;;
49842;SDS011;55559;48.898;9.184;2023-02-11T06:30:10;49.97;;;25.15;;
49842;SDS011;55559;48.898;9.184;2023-02-11T06:32:39;49.45;;;24.58;;
49842;SDS011;55559;48.898;9.184;2023-02-11T06:35:06;67.40;;;36.35;;
49842;SDS011;55559;48.898;9.184;2023-02-11T06:37:34;50.92;;;28.30;;
49842;SDS011;55559;48.898;9.184;2023-02-11T06:40:03;54.08;;;25.30;;
49842;SDS011;55559;48.898;9.184;2023-02-11T06:42:31;46.67;;;25.17;;
49842;SDS011;55559;48.898;9.184;2023-02-11T06:44:58;45.35;;;24.63;;
49842;SDS011;55559;48.898;9.184;2023-02-11T06:47:27;49.42;;;26.00;;
49842;SDS011;55559;48.898;9.184;2023-02-11T06:49:54;47.60;;;24.40;;
49842;SDS011;55559;48.898;9.184;2023-02-11T06:52:21;49.85;;;26.05;;
49842;SDS011;55559;48.898;9.184;2023-02-11T06:54:49;45.03;;;23.23;;
49842;SDS011;55559;48.898;9.184;2023-02-11T06:57:18;50.10;;;25.33;;
49842;SDS011;55559;48.898;9.184;2023-02-11T06:59:45;54.30;;;28.85;;
49842;SDS011;55559;48.898;9.184;2023-02-11T07:02:13;66.50;;;36.55;;
49842;SDS011;55559;48.898;9.184;2023-02-11T07:04:40;50.45;;;25.38;;
49842;SDS011;55559;48.898;9.184;2023-02-11T07:07:08;51.83;;;26.17;;
49842;SDS011;55559;48.898;9.184;2023-02-11T07:09:35;44.88;;;24.50;;
49842;SDS011;55559;48.898;9.184;2023-02-11T07:12:03;42.75;;;24.08;;
49842;SDS011;55559;48.898;9.184;2023-02-11T07:14:32;47.25;;;24.70;;
49842;SDS011;55559;48.898;9.184;2023-02-11T07:16:59;48.83;;;24.95;;
49842;SDS011;55559;48.898;9.184;2023-02-11T07:19:31;43.95;;;24.73;;
49842;SDS011;55559;48.898;9.184;2023-02-11T07:21:58;45.40;;;24.83;;
49842;SDS011;55559;48.898;9.184;2023-02-11T07:24:26;47.53;;;23.33;;
49842;SDS011;55559;48.898;9.184;2023-02-11T07:26:53;47.85;;;25.08;;
49842;SDS011;55559;48.898;9.184;2023-02-11T07:29:21;46.33;;;25.05;;
49842;SDS011;55559;48.898;9.184;2023-02-11T07:31:49;46.40;;;24.00;;
49842;SDS011;55559;48.898;9.184;2023-02-11T07:34:16;48.45;;;25.45;;
49842;SDS011;55559;48.898;9.184;2023-02-11T07:36:44;73.30;;;32.33;;
49842;SDS011;55559;48.898;9.184;2023-02-11T07:39:13;54.50;;;28.35;;
49842;SDS011;55559;48.898;9.184;2023-02-11T07:41:40;49.30;;;24.77;;
49842;SDS011;55559;48.898;9.184;2023-02-11T07:44:09;46.67;;;23.40;;
49842;SDS011;55559;48.898;9.184;2023-02-11T07:46:36;47.17;;;24.73;;
49842;SDS011;55559;48.898;9.184;2023-02-11T07:49:09;50.90;;;25.05;;
49842;SDS011;55559;48.898;9.184;2023-02-11T07:51:36;54.50;;;23.80;;
49842;SDS011;55559;48.898;9.184;2023-02-11T07:54:04;52.75;;;25.67;;
49842;SDS011;55559;48.898;9.184;2023-02-11T07:56:31;45.75;;;25.02;;
49842;SDS011;55559;48.898;9.184;2023-02-11T07:59:00;50.42;;;25.92;;
49842;SDS011;55559;48.898;9.184;2023-02-11T08:01:28;51.58;;;24.27;;
49842;SDS011;55559;48.898;9.184;2023-02-11T08:03:57;58.50;;;26.33;;
49842;SDS011;55559;48.898;9.184;2023-02-11T08:06:29;49.55;;;24.02;;
49842;SDS011;55559;48.898;9.184;2023-02-11T08:09:02;53.75;;;24.58;;
49842;SDS011;55559;48.898;9.184;2023-02-11T08:11:31;40.25;;;22.23;;
49842;SDS011;55559;48.898;9.184;2023-02-11T08:13:58;52.33;;;24.38;;
49842;SDS011;55559;48.898;9.184;2023-02-11T08:16:26;51.20;;;26.00;;
49842;SDS011;55559;48.898;9.184;2023-02-11T08:18:55;55.38;;;28.20;;
49842;SDS011;55559;48.898;9.184;2023-02-11T08:21:24;50.72;;;27.33;;
49842;SDS011;55559;48.898;9.184;2023-02-11T08:23:53;42.50;;;23.70;;
49842;SDS011;55559;48.898;9.184;2023-02-11T08:26:22;45.92;;;23.80;;
49842;SDS011;55559;48.898;9.184;2023-02-11T08:28:52;47.08;;;24.58;;
49842;SDS011;55559;48.898;9.184;2023-02-11T08:31:23;49.33;;;24.75;;
49842;SDS011;55559;48.898;9.184;2023-02-11T08:33:52;43.88;;;24.15;;
49842;SDS011;55559;48.898;9.184;2023-02-11T08:36:22;49.20;;;25.08;;
49842;SDS011;55559;48.898;9.184;2023-02-11T08:38:54;45.33;;;23.48;;
49842;SDS011;55559;48.898;9.184;2023-02-11T08:41:24;42.75;;;23.83;;
49842;SDS011;55559;48.898;9.184;2023-02-11T08:43:51;43.08;;;21.30;;
49842;SDS011;55559;48.898;9.184;2023-02-11T08:46:19;40.72;;;22.20;;
49842;SDS011;55559;48.898;9.184;2023-02-11T08:48:46;39.30;;;23.30;;
49842;SDS011;55559;48.898;9.184;2023-02-11T08:51:15;43.95;;;24.80;;
49842;SDS011;55559;48.898;9.184;2023-02-11T08:53:43;39.60;;;22.13;;
49842;SDS011;55559;48.898;9.184;2023-02-11T08:56:13;39.20;;;21.17;;
49842;SDS011;55559;48.898;9.184;2023-02-11T08:58:41;47.53;;;25.88;;
49842;SDS011;55559;48.898;9.184;2023-02-11T09:01:10;44.80;;;22.75;;
49842;SDS011;55559;48.898;9.184;2023-02-11T09:03:37;56.20;;;24.55;;
49842;SDS011;55559;48.898;9.184;2023-02-11T09:06:05;42.03;;;22.55;;
49842;SDS011;55559;48.898;9.184;2023-02-11T09:08:34;44.97;;;22.15;;
49842;SDS011;55559;48.898;9.184;2023-02-11T09:11:02;35.28;;;20.33;;
49842;SDS011;55559;48.898;9.184;2023-02-11T09:13:31;38.67;;;19.73;;
49842;SDS011;55559;48.898;9.184;2023-02-11T09:15:59;45.90;;;20.20;;
49842;SDS011;55559;48.898;9.184;2023-02-11T09:18:28;39.55;;;24.23;;
49842;SDS011;55559;48.898;9.184;2023-02-11T09:21:00;50.35;;;25.88;;
49842;SDS011;55559;48.898;9.184;2023-02-11T09:23:28;41.38;;;22.15;;
49842;SDS011;55559;48.898;9.184;2023-02-11T09:25:56;42.78;;;21.52;;
49842;SDS011;55559;48.898;9.184;2023-02-11T09:28:24;36.97;;;20.65;;
49842;SDS011;55559;48.898;9.184;2023-02-11T09:30:52;34.67;;;19.65;;
49842;SDS011;55559;48.898;9.184;2023-02-11T09:33:20;38.70;;;20.92;;
49842;SDS011;55559;48.898;9.184;2023-02-11T09:35:47;39.35;;;22.45;;
49842;SDS011;55559;48.898;9.184;2023-02-11T09:38:14;43.15;;;22.13;;
49842;SDS011;55559;48.898;9.184;2023-02-11T09:40:42;45.08;;;23.38;;
49842;SDS011;55559;48.898;9.184;2023-02-11T09:43:11;49.03;;;23.98;;
49842;SDS011;55559;48.898;9.184;2023-02-11T09:45:43;47.70;;;26.25;;
49842;SDS011;55559;48.898;9.184;2023-02-11T09:48:13;47.65;;;22.15;;
49842;SDS011;55559;48.898;9.184;2023-02-11T09:50:44;40.13;;;20.42;;
49842;SDS011;55559;48.898;9.184;2023-02-11T09:53:17;38.55;;;18.83;;
49842;SDS011;55559;48.898;9.184;2023-02-11T09:55:50;42.90;;;23.60;;
49842;SDS011;55559;48.898;9.184;2023-02-11T09:58:23;32.35;;;20.05;;
49842;SDS011;55559;48.898;9.184;2023-02-11T10:00:55;36.97;;;15.23;;
49842;SDS011;55559;48.898;9.184;2023-02-11T10:03:40;29.75;;;17.27;;
49842;SDS011;55559;48.898;9.184;2023-02-11T10:12:17;27.33;;;13.50;;
49842;SDS011;55559;48.898;9.184;2023-02-11T10:17:58;25.50;;;12.23;;
49842;SDS011;55559;48.898;9.184;2023-02-11T10:20:42;24.00;;;11.75;;
49842;SDS011;55559;48.898;9.184;2023-02-11T10:23:16;20.85;;;12.10;;
49842;SDS011;55559;48.898;9.184;2023-02-11T10:25:49;25.13;;;15.13;;
49842;SDS011;55559;48.898;9.184;2023-02-11T10:28:19;30.00;;;19.25;;
49842;SDS011;55559;48.898;9.184;2023-02-11T10:30:51;16.40;;;8.55;;
49842;SDS011;55559;48.898;9.184;2023-02-11T10:33:24;16.08;;;8.15;;
49842;SDS011;55559;48.898;9.184;2023-02-11T10:35:58;14.05;;;7.53;;
49842;SDS011;55559;48.898;9.184;2023-02-11T10:38:26;13.25;;;7.85;;
49842;SDS011;55559;48.898;9.184;2023-02-11T10:40:54;14.93;;;7.75;;
49842;SDS011;55559;48.898;9.184;2023-02-11T10:43:22;15.65;;;6.50;;
49842;SDS011;55559;48.898;9.184;2023-02-11T10:45:54;21.80;;;8.05;;
49842;SDS011;55559;48.898;9.184;2023-02-11T10:48:36;11.73;;;7.53;;
49842;SDS011;55559;48.898;9.184;2023-02-11T10:51:12;26.77;;;12.68;;
49842;SDS011;55559;48.898;9.184;2023-02-11T10:53:43;22.88;;;10.18;;
49842;SDS011;55559;48.898;9.184;2023-02-11T10:56:13;15.77;;;9.00;;
49842;SDS011;55559;48.898;9.184;2023-02-11T10:58:53;15.75;;;8.50;;
49842;SDS011;55559;48.898;9.184;2023-02-11T11:01:36;13.05;;;8.20;;
49842;SDS011;55559;48.898;9.184;2023-02-11T11:04:20;17.30;;;8.23;;
49842;SDS011;55559;48.898;9.184;2023-02-11T11:07:09;14.90;;;8.45;;
49842;SDS011;55559;48.898;9.184;2023-02-11T11:09:44;19.17;;;9.40;;
49842;SDS011;55559;48.898;9.184;2023-02-11T11:12:31;15.93;;;8.13;;
49842;SDS011;55559;48.898;9.184;2023-02-11T11:15:18;18.10;;;9.05;;
49842;SDS011;55559;48.898;9.184;2023-02-11T11:17:47;17.30;;;9.95;;
49842;SDS011;55559;48.898;9.184;2023-02-11T11:20:20;15.45;;;8.52;;
49842;SDS011;55559;48.898;9.184;2023-02-11T11:22:53;19.52;;;9.05;;
49842;SDS011;55559;48.898;9.184;2023-02-11T11:25:37;14.32;;;9.02;;
49842;SDS011;55559;48.898;9.184;2023-02-11T11:28:15;15.27;;;9.32;;
49842;SDS011;55559;48.898;9.184;2023-02-11T11:30:49;20.50;;;10.20;;
49842;SDS011;55559;48.898;9.184;2023-02-11T11:33:20;16.95;;;9.57;;
49842;SDS011;55559;48.898;9.184;2023-02-11T11:35:54;18.75;;;8.88;;
49842;SDS011;55559;48.898;9.184;2023-02-11T11:38:30;20.20;;;9.18;;
49842;SDS011;55559;48.898;9.184;2023-02-11T11:41:15;18.15;;;8.32;;
49842;SDS011;55559;48.898;9.184;2023-02-11T11:43:58;21.65;;;9.30;;
49842;SDS011;55559;48.898;9.184;2023-02-11T11:46:28;18.63;;;8.80;;
49842;SDS011;55559;48.898;9.184;2023-02-11T11:49:05;15.45;;;8.18;;
49842;SDS011;55559;48.898;9.184;2023-02-11T11:51:40;19.75;;;8.18;;
49842;SDS011;55559;48.898;9.184;2023-02-11T11:54:12;15.30;;;7.85;;
49842;SDS011;55559;48.898;9.184;2023-02-11T11:56:46;15.10;;;7.78;;
49842;SDS011;55559;48.898;9.184;2023-02-11T11:59:19;14.52;;;8.07;;
49842;SDS011;55559;48.898;9.184;2023-02-11T12:01:50;27.92;;;8.68;;
49842;SDS011;55559;48.898;9.184;2023-02-11T12:07:32;13.20;;;7.10;;
49842;SDS011;55559;48.898;9.184;2023-02-11T12:13:24;21.77;;;7.10;;
49842;SDS011;55559;48.898;9.184;2023-02-11T12:16:04;17.43;;;7.90;;
49842;SDS011;55559;48.898;9.184;2023-02-11T12:21:44;29.55;;;11.23;;
49842;SDS011;55559;48.898;9.184;2023-02-11T12:24:27;20.02;;;11.82;;
49842;SDS011;55559;48.898;9.184;2023-02-11T12:27:10;19.13;;;11.98;;
49842;SDS011;55559;48.898;9.184;2023-02-11T12:29:49;22.38;;;11.38;;
49842;SDS011;55559;48.898;9.184;2023-02-11T12:32:29;19.40;;;11.05;;
49842;SDS011;55559;48.898;9.184;2023-02-11T12:38:04;24.83;;;12.30;;
49842;SDS011;55559;48.898;9.184;2023-02-11T12:40:47;23.33;;;12.02;;
49842;SDS011;55559;48.898;9.184;2023-02-11T12:43:24;26.45;;;12.30;;
49842;SDS011;55559;48.898;9.184;2023-02-11T12:52:05;21.52;;;12.82;;
49842;SDS011;55559;48.898;9.184;2023-02-11T12:54:45;31.20;;;14.15;;
49842;SDS011;55559;48.898;9.184;2023-02-11T12:57:20;29.15;;;11.60;;
49842;SDS011;55559;48.898;9.184;2023-02-11T12:59:53;30.25;;;14.15;;
49842;SDS011;55559;48.898;9.184;2023-02-11T13:02:29;29.73;;;14.10;;
49842;SDS011;55559;48.898;9.184;2023-02-11T13:05:07;30.15;;;14.98;;
49842;SDS011;55559;48.898;9.184;2023-02-11T13:07:46;25.23;;;14.57;;
49842;SDS011;55559;48.898;9.184;2023-02-11T13:10:22;24.95;;;15.00;;
49842;SDS011;55559;48.898;9.184;2023-02-11T13:12:53;28.15;;;14.38;;
49842;SDS011;55559;48.898;9.184;2023-02-11T13:15:40;24.02;;;14.18;;
49842;SDS011;55559;48.898;9.184;2023-02-11T13:18:15;24.30;;;13.73;;
49842;SDS011;55559;48.898;9.184;2023-02-11T13:20:52;26.20;;;15.48;;
49842;SDS011;55559;48.898;9.184;2023-02-11T13:23:25;24.33;;;14.98;;
49842;SDS011;55559;48.898;9.184;2023-02-11T13:26:01;25.92;;;15.80;;
49842;SDS011;55559;48.898;9.184;2023-02-11T13:28:39;26.13;;;15.35;;
49842;SDS011;55559;48.898;9.184;2023-02-11T13:31:11;27.00;;;14.10;;
49842;SDS011;55559;48.898;9.184;2023-02-11T13:33:42;29.27;;;14.68;;
49842;SDS011;55559;48.898;9.184;2023-02-11T13:36:20;32.85;;;19.50;;
49842;SDS011;55559;48.898;9.184;2023-02-11T13:41:45;24.67;;;15.68;;
49842;SDS011;55559;48.898;9.184;2023-02-11T13:44:24;24.73;;;13.05;;
49842;SDS011;55559;48.898;9.184;2023-02-11T13:46:54;30.40;;;16.08;;
49842;SDS011;55559;48.898;9.184;2023-02-11T13:49:32;28.42;;;15.35;;
49842;SDS011;55559;48.898;9.184;2023-02-11T13:52:05;21.50;;;13.32;;
49842;SDS011;55559;48.898;9.184;2023-02-11T13:54:48;25.10;;;13.85;;
49842;SDS011;55559;48.898;9.184;2023-02-11T13:57:22;22.52;;;13.73;;
49842;SDS011;55559;48.898;9.184;2023-02-11T13:59:59;28.85;;;14.73;;
49842;SDS011;55559;48.898;9.184;2023-02-11T14:02:31;26.27;;;14.20;;
49842;SDS011;55559;48.898;9.184;2023-02-11T14:05:28;24.83;;;15.73;;
49842;SDS011;55559;48.898;9.184;2023-02-11T14:08:21;24.33;;;14.00;;
49842;SDS011;55559;48.898;9.184;2023-02-11T14:11:08;28.15;;;14.77;;
49842;SDS011;55559;48.898;9.184;2023-02-11T14:14:02;23.95;;;12.80;;
49842;SDS011;55559;48.898;9.184;2023-02-11T14:19:49;22.50;;;12.70;;
49842;SDS011;55559;48.898;9.184;2023-02-11T14:22:18;19.67;;;13.32;;
49842;SDS011;55559;48.898;9.184;2023-02-11T14:24:52;22.90;;;12.27;;
49842;SDS011;55559;48.898;9.184;2023-02-11T14:27:29;25.08;;;12.18;;
49842;SDS011;55559;48.898;9.184;2023-02-11T14:36:11;22.77;;;13.00;;
49842;SDS011;55559;48.898;9.184;2023-02-11T14:38:54;17.95;;;11.63;;
49842;SDS011;55559;48.898;9.184;2023-02-11T14:41:31;17.67;;;12.25;;
49842;SDS011;55559;48.898;9.184;2023-02-11T14:46:37;18.75;;;11.15;;
49842;SDS011;55559;48.898;9.184;2023-02-11T14:49:04;17.85;;;11.63;;
49842;SDS011;55559;48.898;9.184;2023-02-11T14:51:34;17.88;;;11.48;;
49842;SDS011;55559;48.898;9.184;2023-02-11T14:54:08;17.80;;;11.85;;
49842;SDS011;55559;48.898;9.184;2023-02-11T14:56:39;19.35;;;12.07;;
49842;SDS011;55559;48.898;9.184;2023-02-11T14:59:12;24.73;;;12.93;;
49842;SDS011;55559;48.898;9.184;2023-02-11T15:01:45;20.50;;;12.55;;
49842;SDS011;55559;48.898;9.184;2023-02-11T15:04:22;19.23;;;12.52;;
49842;SDS011;55559;48.898;9.184;2023-02-11T15:06:51;20.15;;;12.40;;
49842;SDS011;55559;48.898;9.184;2023-02-11T15:09:21;21.60;;;12.82;;
49842;SDS011;55559;48.898;9.184;2023-02-11T15:11:54;22.52;;;12.35;;
49842;SDS011;55559;48.898;9.184;2023-02-11T15:14:23;21.92;;;12.88;;
49842;SDS011;55559;48.898;9.184;2023-02-11T15:16:53;23.23;;;12.35;;
49842;SDS011;55559;48.898;9.184;2023-02-11T15:19:23;21.02;;;12.50;;
49842;SDS011;55559;48.898;9.184;2023-02-11T15:21:55;15.75;;;11.52;;
49842;SDS011;55559;48.898;9.184;2023-02-11T15:24:25;18.80;;;12.45;;
49842;SDS011;55559;48.898;9.184;2023-02-11T15:26:55;21.48;;;12.15;;
49842;SDS011;55559;48.898;9.184;2023-02-11T15:29:23;22.50;;;12.82;;
49842;SDS011;55559;48.898;9.184;2023-02-11T15:32:04;25.73;;;13.50;;
49842;SDS011;55559;48.898;9.184;2023-02-11T15:34:33;19.25;;;12.10;;
49842;SDS011;55559;48.898;9.184;2023-02-11T15:37:01;21.17;;;12.95;;
49842;SDS011;55559;48.898;9.184;2023-02-11T15:39:30;24.48;;;14.25;;